Marlborough, NH (03455)

2:55 PM EST on February 26, 2017 (GMT -0500)
N. Swanzey | | Change Station

Elev 505 ft 42.91 °N, 72.27 °W | Updated 10 minutes ago

Mostly Cloudy
Mostly Cloudy
36.9 °F
Feels Like 29 °F
N
10.9
Wind Variable Wind from West

Today
High -- | Low -- °F
--% Chance of Precip.
Yesterday
High -- | Low -- °F
Precip. -- in
Pressure 29.96 in
Visibility 10.0 miles
Clouds Mostly Cloudy 5000 ft
Windchill 29 °F
Dew Point 16 °F
Humidity 42%
Rainfall 0.03 in
Snow Depth Not available.
6:29 AM 5:34 PM
New Moon, 0% visible
METAR KEEN 261856Z AUTO 32013G24KT 10SM BKN050 02/M11 A2990 RMK AO2 SLP145 T00221106 FZRANO
Pressure 29.96 in
Visibility 10.0 miles
Clouds Mostly Cloudy 5000 ft
Windchill 29 °F
Dew Point 16 °F
Humidity 42%
Rainfall 0.03 in
Snow Depth Not available.
6:29 AM 5:34 PM
New Moon, 0% visible
METAR KEEN 261856Z AUTO 32013G24KT 10SM BKN050 02/M11 A2990 RMK AO2 SLP145 T00221106 FZRANO

Get Your Daily Forecast Email!

Thanks for signing up!

Be on the lookout for a verification email in your inbox.

You'll start receiving the daily forecast at 8 AM.

×

10-Day Weather Forecast

Almanac

Astronomy

Feb. 26, 2017 Rise Set
Actual Time
Civil Twilight
Nautical Twilight
Astronomical Twilight
Moon
Length of Visible Light
Length of Day
Tomorrow will be .
, % of the Moon is Illuminated

Today's Extremes

State Highs State Lows

Community

WunderPhotos

Upload Photos

1,962,540 photos uploaded!

WunderBlog® & News

Nearby

Air Quality

  Air Quality AQ Index Pollutant
Not available.

Snow Depth

Station Depth Elevation

Earthquake Activity

City Distance Mag. Time & Date
Minimum magnitude displayed is 2.5.

Coastal Water Temperatures

Place Temperature

Stations

Nearby Weather Stations

Station Location Temp. Windchill Dew Point Humidity Wind Precip. Elev Updated Type
                   

Watches & Warnings

Flood Watch / Flood Statement
Issued: 2:46 PM EST Feb. 26, 2017 – National Weather Service

... Flood Watch is cancelled...

The Flood Watch for portions of New Hampshire has been cancelled.
Most area rivers have crested and river levels are expected to
continue to fall overnight.

Ice jams remain in place on several area rivers. Ice jams can
develop and break up at any time. River levels may change rapidly.
Do not approach rivers report any flooding to your local law
enforcement when safe to do so.